Time;durP1;ratioP1;P1;durP2;ratioP2;P2;SDS_P1;SDS_P2;PMS_P1;PMS_P2;Temp;Humidity;BMP_temperature;BMP_pressure;BME280_temperature;BME280_humidity;BME280_pressure;Samples;Min_cycle;Max_cycle;Signal;HPM_P1;HPM_P2
2021/04/24 00:00:12;;;;;;;10.32;3.78;;;9.60;53.50;;;;;;4921379;29;20027;-91
2021/04/24 00:02:42;;;;;;;14.02;3.83;;;9.60;53.70;;;;;;4921409;29;20024;-92
2021/04/24 00:05:22;;;;;;;12.43;3.78;;;9.60;53.80;;;;;;4921002;29;20051;-90
2021/04/24 00:07:48;;;;;;;13.38;4.05;;;9.50;53.90;;;;;;4921312;29;20040;-91
2021/04/24 00:10:15;;;;;;;12.07;4.10;;;9.40;53.90;;;;;;4920707;29;20038;-91
2021/04/24 00:12:42;;;;;;;14.57;4.13;;;9.40;54.00;;;;;;4920923;29;20032;-91
2021/04/24 00:15:10;;;;;;;15.05;4.25;;;9.40;54.10;;;;;;4921075;29;20473;-92
2021/04/24 00:17:36;;;;;;;14.00;3.88;;;9.40;54.20;;;;;;4921352;29;20048;-92
2021/04/24 00:20:03;;;;;;;16.20;4.50;;;9.40;54.20;;;;;;4919857;29;20056;-90
2021/04/24 00:22:30;;;;;;;13.90;4.00;;;9.50;54.20;;;;;;4920704;29;20074;-91
2021/04/24 00:24:56;;;;;;;15.63;4.20;;;9.40;54.20;;;;;;4921060;29;20031;-90
2021/04/24 00:27:21;;;;;;;15.43;4.28;;;9.40;54.20;;;;;;4920803;29;20024;-90
2021/04/24 00:29:47;;;;;;;14.25;4.30;;;9.40;54.30;;;;;;4919846;29;20095;-91
2021/04/24 00:32:13;;;;;;;14.77;4.60;;;9.40;54.40;;;;;;4920854;29;20034;-90
2021/04/24 00:34:38;;;;;;;12.18;3.90;;;9.40;54.60;;;;;;4920993;29;20122;-91
2021/04/24 00:37:04;;;;;;;14.52;4.22;;;9.40;54.60;;;;;;4923467;29;20460;-92
2021/04/24 00:39:29;;;;;;;13.45;4.15;;;9.40;54.60;;;;;;4924576;29;20032;-92
2021/04/24 00:41:55;;;;;;;14.73;4.60;;;9.40;54.70;;;;;;4927900;29;20027;-90
2021/04/24 00:44:20;;;;;;;15.15;4.03;;;9.40;54.80;;;;;;4924871;29;20054;-92
2021/04/24 00:46:46;;;;;;;14.77;4.80;;;9.40;55.10;;;;;;4924692;29;20059;-92
2021/04/24 00:49:12;;;;;;;15.48;4.80;;;9.40;55.00;;;;;;4923968;29;20496;-91
2021/04/24 00:51:37;;;;;;;16.27;4.75;;;9.30;55.10;;;;;;4925084;29;20438;-90
2021/04/24 00:54:04;;;;;;;15.98;4.93;;;9.30;55.20;;;;;;4923904;29;20035;-91
2021/04/24 00:56:30;;;;;;;14.38;4.35;;;9.20;55.30;;;;;;4924224;29;20027;-90
2021/04/24 00:58:55;;;;;;;14.93;4.82;;;9.20;55.00;;;;;;4924254;29;20044;-91
2021/04/24 01:01:21;;;;;;;16.10;5.22;;;9.20;55.60;;;;;;4941710;29;20036;-92
2021/04/24 01:03:47;;;;;;;15.73;5.78;;;9.20;55.60;;;;;;4941241;29;20103;-91
2021/04/24 01:06:12;;;;;;;17.58;4.95;;;9.20;55.70;;;;;;4923476;29;20035;-91
2021/04/24 01:08:39;;;;;;;15.43;4.80;;;9.20;55.80;;;;;;4922904;29;20043;-92
2021/04/24 01:11:05;;;;;;;14.95;5.00;;;9.20;55.90;;;;;;4923236;29;20024;-91
2021/04/24 01:13:30;;;;;;;14.38;4.55;;;9.20;56.00;;;;;;4924150;29;20038;-92
2021/04/24 01:15:56;;;;;;;18.77;5.60;;;9.20;56.10;;;;;;4923120;29;20024;-91
2021/04/24 01:18:22;;;;;;;15.30;5.13;;;9.20;56.20;;;;;;4922314;29;20122;-89
2021/04/24 01:20:48;;;;;;;14.95;4.45;;;9.20;56.30;;;;;;4923846;29;20072;-91
2021/04/24 01:23:14;;;;;;;17.17;5.25;;;9.10;56.30;;;;;;4923334;29;20042;-90
2021/04/24 01:25:41;;;;;;;17.08;5.55;;;9.10;56.40;;;;;;4923225;29;20119;-90
2021/04/24 01:28:08;;;;;;;15.77;5.32;;;9.10;56.60;;;;;;4923108;29;20035;-91
2021/04/24 01:30:39;;;;;;;15.23;5.15;;;9.00;56.70;;;;;;4923208;29;20032;-92
2021/04/24 01:33:08;;;;;;;17.13;5.03;;;9.00;56.80;;;;;;4923261;29;20024;-92
2021/04/24 01:35:35;;;;;;;18.25;5.63;;;8.90;57.00;;;;;;4923024;29;20062;-90
2021/04/24 01:38:02;;;;;;;16.92;5.63;;;8.90;57.00;;;;;;4923067;29;20031;-90
2021/04/24 01:40:28;;;;;;;15.73;4.63;;;8.90;57.10;;;;;;4922526;29;20122;-90
2021/04/24 01:42:54;;;;;;;16.23;5.55;;;8.80;57.10;;;;;;4923354;29;20110;-91
2021/04/24 01:45:21;;;;;;;18.38;5.65;;;8.80;57.30;;;;;;4923666;29;20037;-91
2021/04/24 01:47:47;;;;;;;16.42;5.85;;;8.80;57.40;;;;;;4923021;29;20024;-91
2021/04/24 01:50:27;;;;;;;16.33;5.70;;;8.70;57.40;;;;;;4923551;29;20028;-92
2021/04/24 01:52:54;;;;;;;19.52;6.82;;;8.70;57.60;;;;;;4924255;29;20047;-92
2021/04/24 01:55:31;;;;;;;19.02;7.10;;;8.70;57.80;;;;;;4923071;29;20028;-92
2021/04/24 01:57:58;;;;;;;18.52;5.90;;;8.70;57.80;;;;;;4923941;29;20508;-92
2021/04/24 02:00:25;;;;;;;15.90;5.95;;;8.70;57.90;;;;;;4923473;29;20489;-91
2021/04/24 02:02:53;;;;;;;16.45;5.28;;;8.60;57.90;;;;;;4923719;29;20042;-92
2021/04/24 02:05:19;;;;;;;15.77;5.57;;;8.60;57.90;;;;;;4923522;29;20028;-91
2021/04/24 02:07:58;;;;;;;16.92;6.10;;;8.60;58.10;;;;;;4922769;29;20035;-91
2021/04/24 02:10:26;;;;;;;18.10;5.97;;;8.50;58.30;;;;;;4922423;29;20031;-91
2021/04/24 02:12:52;;;;;;;18.45;5.47;;;8.50;58.30;;;;;;4923951;29;20054;-91
2021/04/24 02:15:19;;;;;;;16.63;5.45;;;8.50;58.50;;;;;;4922612;29;20088;-92
2021/04/24 02:17:45;;;;;;;14.10;4.88;;;8.50;58.60;;;;;;4922757;29;20034;-92
2021/04/24 02:20:11;;;;;;;15.47;5.17;;;8.40;59.00;;;;;;4922753;29;20055;-92
2021/04/24 02:22:37;;;;;;;16.58;5.25;;;8.40;58.60;;;;;;4922963;29;20035;-91
2021/04/24 02:25:04;;;;;;;13.50;4.90;;;8.40;58.70;;;;;;4923697;29;20032;-91
2021/04/24 02:27:31;;;;;;;16.90;5.30;;;8.40;58.70;;;;;;4922545;29;20031;-91
2021/04/24 02:29:56;;;;;;;15.73;5.40;;;8.40;58.60;;;;;;4921161;29;20054;-90
2021/04/24 02:32:25;;;;;;;13.88;4.38;;;8.30;58.70;;;;;;4922205;29;20469;-89
2021/04/24 02:34:51;;;;;;;13.80;4.90;;;8.30;58.90;;;;;;4922427;29;20133;-91
2021/04/24 02:37:18;;;;;;;16.45;4.93;;;8.30;59.00;;;;;;4922637;29;20035;-92
2021/04/24 02:39:49;;;;;;;16.00;4.82;;;8.20;59.60;;;;;;4922075;29;20433;-91
2021/04/24 02:42:22;;;;;;;15.98;5.22;;;8.20;59.00;;;;;;4922124;29;20374;-92
2021/04/24 02:44:49;;;;;;;14.40;4.60;;;8.20;59.10;;;;;;4922261;29;20023;-91
2021/04/24 02:47:16;;;;;;;16.42;4.80;;;8.10;59.20;;;;;;4939145;29;20024;-92
2021/04/24 02:49:41;;;;;;;15.77;5.03;;;8.10;59.30;;;;;;4922828;29;20030;-89
2021/04/24 02:52:08;;;;;;;17.38;5.75;;;8.00;59.40;;;;;;4939031;29;20028;-90
2021/04/24 02:54:34;;;;;;;14.83;5.03;;;7.90;59.40;;;;;;4922865;29;20032;-92
2021/04/24 02:57:00;;;;;;;15.35;5.03;;;7.90;59.70;;;;;;4922636;29;20019;-91
2021/04/24 02:59:26;;;;;;;15.33;4.83;;;7.80;59.80;;;;;;4925339;29;20171;-91
2021/04/24 03:01:52;;;;;;;13.88;4.85;;;7.80;59.90;;;;;;4921961;29;20506;-90
2021/04/24 03:04:18;;;;;;;14.47;5.20;;;7.70;60.00;;;;;;4922054;29;20114;-92
2021/04/24 03:06:46;;;;;;;14.32;5.40;;;7.80;60.00;;;;;;4921970;29;20034;-92
2021/04/24 03:09:11;;;;;;;16.77;5.23;;;7.70;60.00;;;;;;4921874;29;20086;-91
2021/04/24 03:11:38;;;;;;;16.60;5.40;;;7.70;60.10;;;;;;4922314;29;20035;-91
2021/04/24 03:14:04;;;;;;;16.77;5.17;;;7.70;60.20;;;;;;4922414;29;20492;-91
2021/04/24 03:16:31;;;;;;;18.43;5.40;;;7.70;60.20;;;;;;4922335;29;20031;-92
2021/04/24 03:18:57;;;;;;;16.67;5.50;;;7.70;60.20;;;;;;4922309;29;20035;-92
2021/04/24 03:21:24;;;;;;;17.67;5.80;;;7.70;60.30;;;;;;4922087;29;20036;-92
2021/04/24 03:23:50;;;;;;;15.90;5.00;;;7.60;60.30;;;;;;4921753;29;20031;-90
2021/04/24 03:26:16;;;;;;;15.60;5.40;;;7.60;60.40;;;;;;4921661;29;20035;-89
2021/04/24 03:28:43;;;;;;;16.93;5.30;;;7.60;60.30;;;;;;4921060;29;20039;-90
2021/04/24 03:31:09;;;;;;;14.60;5.33;;;7.70;60.50;;;;;;4922500;29;20063;-91
2021/04/24 03:33:34;;;;;;;15.93;5.50;;;7.70;60.40;;;;;;4927115;29;20048;-92
2021/04/24 03:36:00;;;;;;;16.00;5.03;;;7.60;60.50;;;;;;4920877;29;20038;-92
2021/04/24 03:38:26;;;;;;;16.80;5.50;;;7.60;60.50;;;;;;4921663;29;20422;-91
2021/04/24 03:40:51;;;;;;;19.73;5.97;;;7.60;60.60;;;;;;4921293;29;20024;-93
2021/04/24 03:43:17;;;;;;;14.63;5.13;;;7.60;60.70;;;;;;4921258;29;20401;-90
2021/04/24 03:45:43;;;;;;;15.73;5.33;;;7.50;60.70;;;;;;4928999;29;20030;-90
2021/04/24 03:48:09;;;;;;;16.20;5.77;;;7.50;61.00;;;;;;4921624;29;20035;-91
2021/04/24 03:50:35;;;;;;;16.03;5.40;;;7.40;60.90;;;;;;4921753;29;20028;-92
2021/04/24 03:53:01;;;;;;;14.83;5.60;;;7.40;61.00;;;;;;4922169;29;20027;-90
2021/04/24 03:55:26;;;;;;;17.07;5.37;;;7.40;61.20;;;;;;4921471;29;20024;-91
2021/04/24 03:57:56;;;;;;;16.07;4.40;;;7.40;61.20;;;;;;4921765;29;20051;-91
2021/04/24 04:00:29;;;;;;;16.90;4.93;;;7.40;61.30;;;;;;4921323;29;20144;-92
2021/04/24 04:03:05;;;;;;;17.37;5.50;;;7.30;61.30;;;;;;4921260;29;20027;-90
2021/04/24 04:05:34;;;;;;;16.10;4.93;;;7.30;61.50;;;;;;4921927;29;20054;-91
2021/04/24 04:08:00;;;;;;;16.47;5.10;;;7.30;61.50;;;;;;4921897;29;20036;-91
2021/04/24 04:10:27;;;;;;;15.87;5.67;;;7.30;61.50;;;;;;4920991;29;20035;-91
2021/04/24 04:12:54;;;;;;;17.13;5.43;;;7.30;61.60;;;;;;4925465;29;20114;-90
2021/04/24 04:15:21;;;;;;;16.53;5.80;;;7.30;61.60;;;;;;4924705;29;20024;-92
2021/04/24 04:18:10;;;;;;;19.63;5.63;;;7.30;61.80;;;;;;4925177;29;20023;-90
2021/04/24 04:20:38;;;;;;;16.95;5.55;;;7.30;61.90;;;;;;4924736;29;20516;-90
2021/04/24 04:23:04;;;;;;;17.45;5.80;;;7.20;61.90;;;;;;4941633;29;20040;-91
2021/04/24 04:25:30;;;;;;;16.23;5.87;;;7.20;62.00;;;;;;4926446;29;20035;-90
2021/04/24 04:27:55;;;;;;;19.53;5.93;;;7.20;62.00;;;;;;4925299;29;20028;-90
2021/04/24 04:30:23;;;;;;;16.53;5.80;;;7.20;62.00;;;;;;4925730;29;20071;-92
2021/04/24 04:32:49;;;;;;;16.90;5.70;;;7.20;62.20;;;;;;4924411;29;20469;-91
2021/04/24 04:35:15;;;;;;;18.73;6.67;;;7.10;62.30;;;;;;4923915;29;20052;-88
2021/04/24 04:37:41;;;;;;;18.90;5.97;;;7.00;62.30;;;;;;4923453;29;20032;-90
2021/04/24 04:40:09;;;;;;;16.83;5.93;;;7.00;62.50;;;;;;4923273;29;20042;-90
2021/04/24 04:42:35;;;;;;;17.17;6.50;;;7.00;62.80;;;;;;4940506;29;20118;-91
2021/04/24 04:45:02;;;;;;;18.27;6.53;;;7.00;62.60;;;;;;4944155;29;20028;-92
2021/04/24 04:47:27;;;;;;;19.00;6.77;;;7.00;62.60;;;;;;4943519;29;20040;-93
2021/04/24 04:49:53;;;;;;;15.83;5.43;;;7.00;62.70;;;;;;4943135;29;20032;-92
2021/04/24 04:52:19;;;;;;;16.83;5.63;;;7.00;62.70;;;;;;4942874;29;20061;-93
2021/04/24 04:54:45;;;;;;;17.10;6.80;;;7.00;63.00;;;;;;4942922;29;20042;-93
2021/04/24 04:57:10;;;;;;;19.73;6.57;;;6.90;62.90;;;;;;4943276;29;20036;-91
2021/04/24 04:59:36;;;;;;;18.67;6.73;;;6.90;63.00;;;;;;4943230;29;20032;-91
2021/04/24 05:02:02;;;;;;;18.13;6.80;;;6.90;63.10;;;;;;4942294;29;20036;-92
2021/04/24 05:04:27;;;;;;;18.40;6.90;;;6.90;63.50;;;;;;4943086;29;20099;-92
2021/04/24 05:06:53;;;;;;;18.40;6.57;;;6.90;63.40;;;;;;4942015;29;20109;-92
2021/04/24 05:09:21;;;;;;;17.57;6.13;;;6.90;63.40;;;;;;4942268;29;20036;-92
2021/04/24 05:11:48;;;;;;;16.95;6.55;;;6.90;63.40;;;;;;4940599;29;20027;-91
2021/04/24 05:14:13;;;;;;;18.47;6.50;;;6.90;63.60;;;;;;4943170;29;20067;-90
2021/04/24 05:16:39;;;;;;;17.93;7.33;;;7.00;63.50;;;;;;4944974;29;20030;-91
2021/04/24 05:19:05;;;;;;;19.57;6.83;;;6.90;63.40;;;;;;4944338;29;20095;-93
2021/04/24 05:21:31;;;;;;;17.20;6.70;;;6.90;63.90;;;;;;4943292;29;20024;-92
2021/04/24 05:23:56;;;;;;;18.60;7.07;;;6.90;63.60;;;;;;4941846;29;20032;-93
2021/04/24 05:26:22;;;;;;;17.67;7.00;;;6.90;63.60;;;;;;4944384;29;20024;-90
2021/04/24 05:28:48;;;;;;;21.00;6.87;;;7.00;63.60;;;;;;4944316;29;20043;-92
2021/04/24 05:31:14;;;;;;;18.90;7.20;;;7.00;63.60;;;;;;4944133;29;20111;-91
2021/04/24 05:33:39;;;;;;;19.30;6.60;;;7.00;63.60;;;;;;4943833;29;20533;-93
2021/04/24 05:36:10;;;;;;;18.00;6.40;;;7.00;63.60;;;;;;4943192;29;20040;-92
2021/04/24 05:38:36;;;;;;;17.53;6.83;;;7.00;63.70;;;;;;4943246;29;20028;-92
2021/04/24 05:41:02;;;;;;;18.93;7.10;;;7.00;63.90;;;;;;4943570;29;20071;-91
2021/04/24 05:43:27;;;;;;;20.37;6.80;;;7.00;63.80;;;;;;4943601;29;20023;-92
2021/04/24 05:45:53;;;;;;;17.90;7.23;;;7.00;64.00;;;;;;4943513;29;20043;-91
2021/04/24 05:48:18;;;;;;;18.97;7.10;;;7.00;64.10;;;;;;4943995;29;20027;-92
2021/04/24 05:50:44;;;;;;;18.23;7.13;;;7.00;64.20;;;;;;4944088;29;20040;-91
2021/04/24 05:53:10;;;;;;;19.50;7.53;;;7.00;64.30;;;;;;4927676;29;20091;-92
2021/04/24 05:55:36;;;;;;;18.80;7.20;;;7.00;64.20;;;;;;4943059;29;20031;-91
2021/04/24 05:58:02;;;;;;;19.87;7.10;;;7.00;64.20;;;;;;4944359;29;20067;-91
2021/04/24 06:00:28;;;;;;;20.37;7.43;;;7.10;64.30;;;;;;4942730;29;20019;-90
2021/04/24 06:02:54;;;;;;;18.90;7.40;;;7.10;64.60;;;;;;4944282;29;20027;-91
2021/04/24 06:05:20;;;;;;;19.97;6.93;;;7.10;64.30;;;;;;4943109;29;20036;-90
2021/04/24 06:07:46;;;;;;;20.40;7.37;;;7.10;64.70;;;;;;4942973;29;20020;-91
2021/04/24 06:10:15;;;;;;;17.10;6.83;;;7.20;64.60;;;;;;4942255;29;20060;-93
2021/04/24 06:12:41;;;;;;;21.63;7.72;;;7.20;64.50;;;;;;4941404;29;20036;-92
2021/04/24 06:15:09;;;;;;;19.17;7.73;;;7.20;64.60;;;;;;4943949;29;20098;-92
2021/04/24 06:17:35;;;;;;;20.75;7.65;;;7.20;64.70;;;;;;4943931;29;20047;-92
2021/04/24 06:20:02;;;;;;;22.67;7.77;;;7.30;64.80;;;;;;4943001;29;20051;-91
2021/04/24 06:22:27;;;;;;;19.57;7.73;;;7.30;64.80;;;;;;4941404;29;20035;-92
2021/04/24 06:24:53;;;;;;;20.70;7.53;;;7.40;65.20;;;;;;4941950;29;20036;-92
2021/04/24 06:27:18;;;;;;;18.97;7.43;;;7.40;65.20;;;;;;4942708;29;20033;-91
2021/04/24 06:29:44;;;;;;;20.20;6.67;;;7.40;65.40;;;;;;4942794;29;20103;-90
2021/04/24 06:32:09;;;;;;;20.17;7.17;;;7.50;65.40;;;;;;4942966;29;20028;-93
2021/04/24 06:34:35;;;;;;;19.10;8.37;;;7.60;65.50;;;;;;4939036;29;20462;-91
2021/04/24 06:37:01;;;;;;;22.17;7.40;;;7.60;65.90;;;;;;4939637;29;20063;-91
2021/04/24 06:39:26;;;;;;;19.57;7.33;;;7.70;65.40;;;;;;4939482;29;20099;-92
2021/04/24 06:41:52;;;;;;;19.33;7.67;;;7.70;65.40;;;;;;4942082;29;20036;-93
2021/04/24 06:44:18;;;;;;;21.30;8.00;;;7.90;65.20;;;;;;4941201;29;20063;-91
2021/04/24 06:46:44;;;;;;;19.67;7.00;;;8.10;65.20;;;;;;4940851;29;20063;-92
2021/04/24 06:49:10;;;;;;;20.03;8.07;;;8.20;65.50;;;;;;4941430;29;20101;-91
2021/04/24 06:51:37;;;;;;;22.83;8.30;;;8.40;65.20;;;;;;4939817;29;20051;-91
2021/04/24 06:54:03;;;;;;;18.60;7.47;;;8.50;66.80;;;;;;4941270;29;20032;-92
2021/04/24 06:56:29;;;;;;;19.50;6.63;;;8.60;65.10;;;;;;4942302;29;20035;-90
2021/04/24 06:58:54;;;;;;;20.93;7.47;;;8.70;64.80;;;;;;4941792;29;20040;-94
2021/04/24 07:01:20;;;;;;;19.30;7.30;;;8.70;65.10;;;;;;4941331;29;20118;-92
2021/04/24 07:03:45;;;;;;;21.67;7.37;;;8.90;66.00;;;;;;4941184;29;20027;-92
2021/04/24 07:06:11;;;;;;;20.03;7.43;;;9.00;64.60;;;;;;4940867;29;20039;-93
2021/04/24 07:08:37;;;;;;;19.33;7.05;;;9.20;64.20;;;;;;4940364;29;20028;-92
2021/04/24 07:11:02;;;;;;;19.58;7.65;;;9.30;64.80;;;;;;4938038;29;20036;-92
2021/04/24 07:13:28;;;;;;;18.30;7.13;;;9.30;65.00;;;;;;4939803;29;20055;-92
2021/04/24 07:15:54;;;;;;;21.52;7.32;;;9.40;64.00;;;;;;4939879;29;20036;-93
2021/04/24 07:18:19;;;;;;;20.90;7.20;;;9.30;63.90;;;;;;4939165;28;20028;-91
2021/04/24 07:20:45;;;;;;;17.00;6.15;;;9.30;64.20;;;;;;4940499;29;20071;-92
2021/04/24 07:23:11;;;;;;;13.40;4.47;;;9.30;65.80;;;;;;4941819;28;20051;-92
2021/04/24 07:25:37;;;;;;;18.85;4.93;;;9.40;64.50;;;;;;4940973;29;20036;-92
2021/04/24 07:28:03;;;;;;;16.50;5.28;;;9.40;64.30;;;;;;4941986;28;20035;-93
2021/04/24 07:30:30;;;;;;;14.73;4.78;;;9.40;65.40;;;;;;4942208;29;20027;-93
2021/04/24 07:32:56;;;;;;;16.25;5.05;;;9.40;64.50;;;;;;4939722;29;20118;-92
2021/04/24 07:35:21;;;;;;;14.93;4.40;;;9.50;64.20;;;;;;4939998;29;20390;-91
2021/04/24 07:37:47;;;;;;;14.65;4.22;;;9.50;65.80;;;;;;4939540;29;20039;-91
2021/04/24 07:40:13;;;;;;;20.30;4.57;;;9.50;64.80;;;;;;4939451;29;20036;-93
2021/04/24 07:42:39;;;;;;;15.35;4.80;;;9.60;64.30;;;;;;4940897;28;20019;-93
2021/04/24 07:45:06;;;;;;;17.98;5.05;;;9.60;64.40;;;;;;4940068;29;20031;-92
2021/04/24 07:47:31;;;;;;;13.50;5.43;;;9.50;64.80;;;;;;4941351;29;20038;-92
2021/04/24 07:49:58;;;;;;;16.20;5.07;;;9.60;64.30;;;;;;4940915;29;20020;-92
2021/04/24 07:52:23;;;;;;;13.55;4.68;;;9.50;64.10;;;;;;4940887;28;20046;-90
2021/04/24 07:54:49;;;;;;;16.47;5.07;;;9.50;64.00;;;;;;4940211;28;20016;-95
2021/04/24 07:57:16;;;;;;;14.15;5.18;;;9.50;64.50;;;;;;4939571;28;20031;-92
2021/04/24 07:59:42;;;;;;;17.47;5.93;;;9.40;64.60;;;;;;4940187;28;20032;-90
2021/04/24 08:02:09;;;;;;;15.88;5.38;;;9.40;64.20;;;;;;4939445;29;20034;-93
2021/04/24 08:04:35;;;;;;;17.90;5.05;;;9.40;64.80;;;;;;4940083;29;20051;-91
2021/04/24 08:07:02;;;;;;;14.43;4.75;;;9.40;64.10;;;;;;4939379;29;20019;-91
2021/04/24 08:09:27;;;;;;;14.48;4.63;;;9.40;64.10;;;;;;4938465;29;20031;-92
2021/04/24 08:11:53;;;;;;;14.23;4.75;;;9.30;64.20;;;;;;4938980;29;20075;-93
2021/04/24 08:14:19;;;;;;;18.00;5.50;;;9.30;64.10;;;;;;4939858;29;20051;-91
2021/04/24 08:16:45;;;;;;;15.65;4.90;;;9.40;64.40;;;;;;4940678;29;20043;-93
2021/04/24 08:19:10;;;;;;;14.85;5.28;;;9.40;63.90;;;;;;4940306;29;20055;-94
2021/04/24 08:21:36;;;;;;;14.05;4.50;;;9.50;63.50;;;;;;4938728;29;20113;-93
2021/04/24 08:24:02;;;;;;;13.88;4.88;;;9.50;63.40;;;;;;4938192;29;20066;-92
2021/04/24 08:26:29;;;;;;;14.85;4.60;;;9.50;63.40;;;;;;4939813;29;20063;-93
2021/04/24 08:28:55;;;;;;;15.27;4.97;;;9.50;63.50;;;;;;4941443;29;20039;-93
2021/04/24 08:31:21;;;;;;;15.02;4.88;;;9.50;64.20;;;;;;4940712;29;20067;-92
2021/04/24 08:33:46;;;;;;;13.40;4.43;;;9.60;63.80;;;;;;4940591;29;20027;-91
2021/04/24 08:36:12;;;;;;;15.25;4.72;;;9.60;63.20;;;;;;4938709;29;20040;-93
2021/04/24 08:38:38;;;;;;;15.32;4.63;;;9.70;63.10;;;;;;4938787;29;20048;-93
2021/04/24 08:41:04;;;;;;;16.13;4.50;;;9.70;62.90;;;;;;4939041;29;20039;-93
2021/04/24 08:43:31;;;;;;;12.88;4.20;;;9.70;62.90;;;;;;4939784;28;20040;-93
2021/04/24 08:46:01;;;;;;;13.77;4.25;;;9.70;62.80;;;;;;4938969;28;20383;-94
2021/04/24 08:48:27;;;;;;;12.55;4.03;;;9.70;62.60;;;;;;4939144;29;20022;-94
2021/04/24 08:50:54;;;;;;;14.90;4.50;;;9.70;62.50;;;;;;4939833;29;20057;-93
2021/04/24 08:53:20;;;;;;;17.35;4.20;;;9.80;62.40;;;;;;4939842;29;20035;-92
2021/04/24 08:55:46;;;;;;;12.45;4.15;;;9.80;62.60;;;;;;4939273;29;20023;-93
2021/04/24 08:58:11;;;;;;;14.13;5.05;;;10.00;61.90;;;;;;4942932;29;20063;-92
2021/04/24 09:00:39;;;;;;;15.10;4.90;;;10.10;61.60;;;;;;4943302;29;20032;-94
2021/04/24 09:03:10;;;;;;;16.43;4.97;;;10.20;61.60;;;;;;4944128;29;20028;-93
2021/04/24 09:05:37;;;;;;;13.23;4.75;;;10.30;61.20;;;;;;4944696;29;20015;-91
2021/04/24 09:08:05;;;;;;;14.82;4.25;;;10.50;60.90;;;;;;4943912;29;20051;-94
2021/04/24 09:10:35;;;;;;;15.80;4.45;;;10.60;60.50;;;;;;4942510;29;20035;-92
2021/04/24 09:13:01;;;;;;;15.90;4.75;;;10.60;60.30;;;;;;4943640;29;20067;-93
2021/04/24 09:15:27;;;;;;;12.57;4.20;;;10.60;60.30;;;;;;4944902;29;20043;-93
2021/04/24 09:17:54;;;;;;;14.57;5.15;;;10.50;60.50;;;;;;4944678;29;20091;-93
2021/04/24 09:20:21;;;;;;;15.18;5.07;;;10.50;60.60;;;;;;4944361;29;20052;-93
2021/04/24 09:23:01;;;;;;;12.25;4.13;;;10.60;60.20;;;;;;4944097;29;20091;-91
2021/04/24 09:25:40;;;;;;;15.70;4.57;;;10.70;60.00;;;;;;4944286;29;20032;-92
2021/04/24 09:28:08;;;;;;;15.37;4.80;;;10.80;59.80;;;;;;4944185;28;20039;-93
2021/04/24 09:30:37;;;;;;;15.35;5.05;;;11.00;59.40;;;;;;4944570;28;20031;-92
2021/04/24 09:33:04;;;;;;;18.55;5.30;;;11.10;59.10;;;;;;4944428;28;20030;-93
2021/04/24 09:35:52;;;;;;;15.93;5.05;;;11.20;58.80;;;;;;4943849;29;20052;-91
2021/04/24 09:38:21;;;;;;;13.93;4.70;;;11.20;58.50;;;;;;4943930;28;20036;-94
2021/04/24 09:41:05;;;;;;;14.75;4.60;;;11.40;58.60;;;;;;4943883;29;20039;-92
2021/04/24 09:43:57;;;;;;;17.60;5.38;;;11.50;58.10;;;;;;4944540;28;20047;-92
2021/04/24 09:46:34;;;;;;;17.08;5.30;;;11.60;58.40;;;;;;4944496;28;20034;-94
2021/04/24 09:49:27;;;;;;;16.80;4.85;;;11.60;57.40;;;;;;4943879;29;20076;-91
2021/04/24 09:52:02;;;;;;;11.73;4.15;;;11.60;57.60;;;;;;4944208;29;20067;-93
2021/04/24 09:54:37;;;;;;;15.27;4.60;;;11.60;57.50;;;;;;4944802;29;20032;-93
2021/04/24 09:57:24;;;;;;;15.40;4.50;;;11.50;58.00;;;;;;4944420;28;20039;-92
2021/04/24 10:00:01;;;;;;;13.65;4.90;;;11.60;57.40;;;;;;4944328;28;20015;-91
2021/04/24 10:02:31;;;;;;;14.40;4.53;;;11.60;56.70;;;;;;4944018;28;20023;-92
2021/04/24 10:05:21;;;;;;;17.88;5.45;;;11.70;57.10;;;;;;4944506;28;20023;-92
2021/04/24 10:07:47;;;;;;;15.90;5.20;;;11.90;56.00;;;;;;4943392;29;20032;-91
2021/04/24 10:10:16;;;;;;;17.25;4.72;;;11.90;56.60;;;;;;4943080;29;20043;-91
2021/04/24 10:13:05;;;;;;;13.35;4.47;;;12.00;56.80;;;;;;4943569;28;20105;-91
2021/04/24 10:15:45;;;;;;;13.68;4.55;;;12.00;56.50;;;;;;4944176;28;20036;-92
2021/04/24 10:18:12;;;;;;;14.52;4.38;;;12.10;55.70;;;;;;4944023;28;20023;-92
2021/04/24 10:20:40;;;;;;;13.73;4.18;;;12.20;54.40;;;;;;4944201;29;20157;-91
2021/04/24 10:23:07;;;;;;;15.88;4.68;;;12.20;54.70;;;;;;4943570;28;20087;-93
2021/04/24 10:25:34;;;;;;;15.40;4.40;;;12.20;55.10;;;;;;4943409;29;20012;-91
2021/04/24 10:28:00;;;;;;;12.50;4.20;;;12.30;55.10;;;;;;4943795;28;20039;-91
2021/04/24 10:30:27;;;;;;;15.27;4.43;;;12.30;55.00;;;;;;4943777;28;20031;-92
2021/04/24 10:32:53;;;;;;;14.35;4.63;;;12.40;55.00;;;;;;4943377;29;20043;-92
2021/04/24 10:35:20;;;;;;;16.02;4.25;;;12.50;54.60;;;;;;4943064;29;20046;-91
2021/04/24 10:37:48;;;;;;;14.35;4.70;;;12.70;54.00;;;;;;4943066;28;20036;-91
2021/04/24 10:40:14;;;;;;;16.00;4.65;;;12.80;53.90;;;;;;4942977;28;20036;-92
2021/04/24 10:42:44;;;;;;;17.10;4.32;;;12.80;53.70;;;;;;4943563;28;20016;-91
2021/04/24 10:45:10;;;;;;;13.73;4.13;;;12.90;53.20;;;;;;4943679;28;20028;-92
2021/04/24 10:47:41;;;;;;;13.70;4.32;;;13.00;52.10;;;;;;4943954;29;20079;-90
2021/04/24 10:50:13;;;;;;;14.90;4.55;;;12.90;52.10;;;;;;4943821;28;20019;-90
2021/04/24 10:52:42;;;;;;;16.15;4.88;;;12.90;52.60;;;;;;4943964;28;20035;-90
2021/04/24 10:55:16;;;;;;;17.98;4.50;;;12.90;52.60;;;;;;4943948;28;20023;-90
2021/04/24 10:57:42;;;;;;;15.55;4.43;;;12.90;52.30;;;;;;4943611;28;20116;-91
2021/04/24 11:00:15;;;;;;;14.50;3.92;;;12.80;52.90;;;;;;4943865;28;20180;-90
2021/04/24 11:02:43;;;;;;;13.98;3.92;;;12.80;52.00;;;;;;4943728;28;20043;-90
2021/04/24 11:05:33;;;;;;;13.65;4.13;;;12.80;52.10;;;;;;4943716;28;20032;-90
2021/04/24 11:08:08;;;;;;;14.52;4.25;;;12.80;52.90;;;;;;4943563;28;20024;-91
2021/04/24 11:10:53;;;;;;;12.15;4.03;;;12.80;51.20;;;;;;4943578;28;20043;-91
2021/04/24 11:13:19;;;;;;;12.23;3.88;;;12.90;52.90;;;;;;4943514;28;20039;-91
2021/04/24 11:15:45;;;;;;;12.80;4.18;;;13.00;52.20;;;;;;4943384;28;20020;-91
2021/04/24 11:18:12;;;;;;;13.60;4.00;;;13.00;52.00;;;;;;4943491;28;20011;-91
2021/04/24 11:20:57;;;;;;;12.68;4.03;;;13.00;52.00;;;;;;4942948;28;20055;-91
2021/04/24 11:23:35;;;;;;;11.90;3.15;;;13.00;51.90;;;;;;4943507;28;20083;-91
2021/04/24 11:26:06;;;;;;;7.70;3.15;;;13.00;50.50;;;;;;4943402;28;20088;-92
2021/04/24 11:28:34;;;;;;;13.40;3.08;;;13.10;51.40;;;;;;4943180;28;20039;-92
2021/04/24 11:31:02;;;;;;;11.25;3.40;;;13.10;50.90;;;;;;4943290;28;20032;-92
2021/04/24 11:33:34;;;;;;;11.88;3.53;;;13.20;51.60;;;;;;4943267;28;20026;-93
2021/04/24 11:36:27;;;;;;;11.80;3.42;;;13.20;51.50;;;;;;4943205;28;20039;-91
2021/04/24 11:38:56;;;;;;;10.85;3.45;;;13.20;48.00;;;;;;4943069;28;20091;-91
2021/04/24 11:41:45;;;;;;;13.50;3.90;;;13.20;51.10;;;;;;4942929;28;20036;-91
2021/04/24 11:44:17;;;;;;;;;;;13.40;47.90;;;;;;4943588;28;20054;-92
2021/04/24 11:46:44;;;;;;;12.82;3.85;;;13.40;50.10;;;;;;4943272;28;19895;-92
2021/04/24 11:49:12;;;;;;;13.20;3.90;;;13.50;49.90;;;;;;4943231;28;20035;-90
2021/04/24 11:51:47;;;;;;;12.40;3.67;;;13.50;50.20;;;;;;4943058;28;20042;-90
2021/04/24 11:54:32;;;;;;;17.25;3.47;;;13.40;49.20;;;;;;4943129;28;20043;-91
2021/04/24 11:57:00;;;;;;;12.73;3.67;;;13.50;49.60;;;;;;4942993;28;20032;-91
2021/04/24 11:59:28;;;;;;;16.02;4.10;;;13.70;49.90;;;;;;4942941;28;20019;-92
2021/04/24 12:01:59;;;;;;;12.95;3.90;;;13.70;49.30;;;;;;4942902;28;20024;-91
2021/04/24 12:04:27;;;;;;;14.13;3.65;;;13.80;49.10;;;;;;4942853;28;20038;-94
2021/04/24 12:07:25;;;;;;;11.32;3.80;;;13.80;49.70;;;;;;4943019;28;20055;-91
2021/04/24 12:09:59;;;;;;;16.23;3.92;;;13.90;46.70;;;;;;4901894;28;20335;-93
2021/04/24 12:12:37;;;;;;;12.93;3.60;;;13.90;49.30;;;;;;4942827;28;20032;-93
2021/04/24 12:15:10;;;;;;;12.10;3.65;;;14.10;49.20;;;;;;4942817;28;20023;-90
2021/04/24 12:17:49;;;;;;;11.98;4.05;;;13.90;48.10;;;;;;4942760;28;20042;-92
2021/04/24 12:20:26;;;;;;;12.75;4.20;;;13.90;49.40;;;;;;4942683;28;20042;-92
2021/04/24 12:22:53;;;;;;;11.93;3.65;;;14.00;45.80;;;;;;4942727;28;20039;-91
2021/04/24 12:25:22;;;;;;;12.75;3.42;;;13.90;48.90;;;;;;4942875;28;20012;-91
2021/04/24 12:27:49;;;;;;;9.53;3.67;;;13.80;48.40;;;;;;4942976;28;20019;-92
2021/04/24 12:30:21;;;;;;;13.00;3.65;;;13.80;49.10;;;;;;4942525;28;20158;-92
2021/04/24 12:33:06;;;;;;;11.60;3.50;;;13.80;49.00;;;;;;4945886;28;20023;-92
2021/04/24 12:35:33;;;;;;;12.88;4.00;;;13.90;47.30;;;;;;4946271;28;20087;-91
2021/04/24 12:38:12;;;;;;;14.60;3.38;;;13.90;48.50;;;;;;4946501;28;20040;-92
2021/04/24 12:40:47;;;;;;;11.65;3.28;;;14.20;47.90;;;;;;4946325;28;20012;-91
2021/04/24 12:43:22;;;;;;;10.32;3.33;;;14.20;47.10;;;;;;4946259;28;20018;-90
2021/04/24 12:45:50;;;;;;;11.55;3.78;;;14.20;48.00;;;;;;4946388;28;20016;-92
2021/04/24 12:48:21;;;;;;;15.52;3.45;;;14.30;48.20;;;;;;4946114;28;20043;-93